Time;durP1;ratioP1;P1;durP2;ratioP2;P2;SDS_P1;SDS_P2;PMS_P1;PMS_P2;Temp;Humidity;BMP_temperature;BMP_pressure;BME280_temperature;BME280_humidity;BME280_pressure;Samples;Min_cycle;Max_cycle;Signal;HPM_P1;HPM_P2
2022/07/31 00:00:06;;;;;;;1.65;1.15;;;26.90;46.20;;;;;;5062572;28;20082;-43
2022/07/31 00:02:31;;;;;;;1.73;1.55;;;26.90;46.20;;;;;;5059925;28;20086;-45
2022/07/31 00:04:57;;;;;;;2.20;1.23;;;26.90;46.20;;;;;;5062576;28;20032;-44
2022/07/31 00:07:23;;;;;;;2.72;1.40;;;26.90;46.20;;;;;;5045840;28;20028;-49
2022/07/31 00:09:49;;;;;;;2.53;1.40;;;26.90;46.20;;;;;;5060438;28;20058;-43
2022/07/31 00:12:16;;;;;;;1.60;1.50;;;26.90;46.90;;;;;;5063406;28;20848;-42
2022/07/31 00:14:42;;;;;;;2.40;1.67;;;26.90;46.30;;;;;;5060721;28;20035;-42
2022/07/31 00:17:07;;;;;;;2.08;1.40;;;26.90;46.30;;;;;;5060216;28;20028;-48
2022/07/31 00:19:33;;;;;;;1.83;1.17;;;26.90;46.30;;;;;;5061330;28;20029;-42
2022/07/31 00:21:59;;;;;;;1.58;1.23;;;26.90;46.30;;;;;;5062738;28;20028;-42
2022/07/31 00:24:25;;;;;;;1.90;1.65;;;26.90;46.40;;;;;;5058762;28;20112;-49
2022/07/31 00:26:51;;;;;;;1.60;1.40;;;26.90;46.40;;;;;;5058864;28;20024;-45
2022/07/31 00:29:17;;;;;;;4.20;2.47;;;26.90;46.40;;;;;;5058193;28;20115;-44
2022/07/31 00:31:43;;;;;;;2.42;1.35;;;26.90;46.50;;;;;;5046678;28;20604;-42
2022/07/31 00:34:10;;;;;;;4.80;1.55;;;26.90;46.50;;;;;;5047787;28;20020;-43
2022/07/31 00:36:36;;;;;;;1.77;1.35;;;26.90;46.50;;;;;;5060503;28;20103;-43
2022/07/31 00:39:02;;;;;;;1.77;1.38;;;26.90;46.50;;;;;;5061740;28;20123;-45
2022/07/31 00:41:38;;;;;;;1.40;1.30;;;26.90;46.50;;;;;;5056217;28;20036;-41
2022/07/31 00:44:04;;;;;;;1.88;1.38;;;26.90;46.50;;;;;;5062945;28;20032;-42
2022/07/31 00:46:30;;;;;;;1.85;1.40;;;26.90;46.60;;;;;;5058613;28;20029;-46
2022/07/31 00:48:55;;;;;;;2.13;1.48;;;26.90;46.60;;;;;;5058685;28;20417;-40
2022/07/31 00:51:21;;;;;;;1.95;1.25;;;26.90;46.60;;;;;;5042464;28;20028;-47
2022/07/31 00:53:47;;;;;;;1.63;1.13;;;26.90;46.60;;;;;;5053474;28;20078;-41
2022/07/31 00:56:12;;;;;;;2.25;1.30;;;26.90;46.60;;;;;;5057781;28;20024;-41
2022/07/31 00:58:38;;;;;;;1.70;1.40;;;26.90;46.50;;;;;;5040027;28;20111;-41
2022/07/31 01:01:03;;;;;;;1.30;1.20;;;26.80;46.30;;;;;;5059089;28;20032;-41
2022/07/31 01:03:30;;;;;;;1.80;1.50;;;26.80;46.50;;;;;;5056885;28;20025;-43
2022/07/31 01:05:55;;;;;;;1.60;1.00;;;26.80;46.50;;;;;;5061000;28;20036;-41
2022/07/31 01:08:21;;;;;;;2.38;1.65;;;26.80;46.50;;;;;;5054058;28;20033;-45
2022/07/31 01:11:09;;;;;;;1.65;1.42;;;26.90;46.60;;;;;;5059300;28;20048;-44
2022/07/31 01:13:43;;;;;;;1.77;1.27;;;26.80;46.50;;;;;;5058561;28;20488;-43
2022/07/31 01:16:11;;;;;;;1.35;1.10;;;26.80;46.50;;;;;;5058139;28;20138;-48
2022/07/31 01:18:39;;;;;;;1.50;1.10;;;26.80;46.50;;;;;;5055913;28;20124;-42
2022/07/31 01:21:08;;;;;;;2.83;1.40;;;26.90;46.60;;;;;;5045408;28;20115;-42
2022/07/31 01:24:07;;;;;;;2.28;1.50;;;26.80;46.50;;;;;;5054512;28;20044;-41
2022/07/31 01:26:57;;;;;;;1.42;1.20;;;26.90;46.60;;;;;;5056799;28;20028;-42
2022/07/31 01:29:57;;;;;;;2.03;1.50;;;26.80;46.50;;;;;;5056615;28;20028;-51
2022/07/31 01:32:28;;;;;;;2.17;1.33;;;26.90;46.60;;;;;;5026360;28;20037;-47
2022/07/31 01:35:01;;;;;;;1.50;1.40;;;26.90;46.60;;;;;;5053601;28;20934;-43
2022/07/31 01:37:30;;;;;;;2.08;1.48;;;26.80;46.50;;;;;;5055250;28;20037;-50
2022/07/31 01:40:23;;;;;;;2.08;1.40;;;26.80;46.60;;;;;;5059615;28;20030;-44
2022/07/31 01:42:54;;;;;;;2.10;1.40;;;26.80;46.60;;;;;;5046278;28;20051;-42
2022/07/31 01:45:21;;;;;;;1.80;1.38;;;26.80;46.70;;;;;;5050325;28;20473;-40
2022/07/31 01:47:48;;;;;;;1.35;1.25;;;26.90;46.80;;;;;;5052851;28;20064;-42
2022/07/31 01:50:15;;;;;;;1.60;1.30;;;26.90;46.80;;;;;;5059181;28;20033;-43
2022/07/31 01:52:42;;;;;;;2.28;1.30;;;26.80;46.70;;;;;;5053970;28;20086;-42
2022/07/31 01:55:11;;;;;;;1.55;1.00;;;26.90;46.90;;;;;;5065473;28;20031;-42
2022/07/31 01:57:40;;;;;;;1.77;1.50;;;26.90;46.90;;;;;;5055372;28;20032;-42
2022/07/31 02:00:08;;;;;;;2.47;1.25;;;26.80;46.80;;;;;;5057993;28;20435;-42
2022/07/31 02:02:35;;;;;;;1.85;1.40;;;26.90;46.90;;;;;;5050237;28;20355;-42
2022/07/31 02:05:06;;;;;;;3.58;1.70;;;26.90;46.90;;;;;;5050687;28;20024;-45
2022/07/31 02:07:35;;;;;;;1.85;1.30;;;26.80;46.90;;;;;;5059639;28;20035;-43
2022/07/31 02:10:02;;;;;;;1.90;1.23;;;26.90;47.00;;;;;;5057414;28;20094;-42
2022/07/31 02:12:29;;;;;;;1.83;1.50;;;26.80;46.60;;;;;;5059080;28;20103;-45
2022/07/31 02:14:55;;;;;;;3.05;1.30;;;26.80;46.60;;;;;;5051486;28;20389;-42
2022/07/31 02:17:22;;;;;;;2.70;2.00;;;26.70;46.60;;;;;;5040231;28;20033;-43
2022/07/31 02:19:51;;;;;;;1.90;1.33;;;26.70;46.70;;;;;;5048188;28;20033;-43
2022/07/31 02:22:17;;;;;;;1.88;1.65;;;26.70;46.70;;;;;;5054162;28;20031;-40
2022/07/31 02:24:43;;;;;;;2.35;1.63;;;26.70;46.80;;;;;;5054812;28;20820;-42
2022/07/31 02:27:10;;;;;;;2.38;1.50;;;26.60;46.70;;;;;;5058874;28;20033;-41
2022/07/31 02:29:38;;;;;;;1.65;1.50;;;26.60;46.70;;;;;;5053872;28;20051;-40
2022/07/31 02:32:04;;;;;;;1.75;1.38;;;26.60;46.70;;;;;;5056188;28;20074;-41
2022/07/31 02:34:31;;;;;;;2.92;2.10;;;26.50;46.70;;;;;;5061790;28;20365;-43
2022/07/31 02:36:59;;;;;;;2.17;1.40;;;26.50;46.70;;;;;;5060688;28;20039;-43
2022/07/31 02:39:26;;;;;;;2.00;1.40;;;26.60;46.70;;;;;;5051229;28;20545;-50
2022/07/31 02:41:52;;;;;;;2.47;2.00;;;26.50;46.60;;;;;;5054257;28;20492;-43
2022/07/31 02:44:19;;;;;;;1.83;1.35;;;26.50;46.60;;;;;;5049885;28;20033;-43
2022/07/31 02:46:46;;;;;;;1.63;1.40;;;26.50;46.60;;;;;;5051225;28;20040;-42
2022/07/31 02:49:15;;;;;;;2.92;1.88;;;26.50;46.70;;;;;;5054721;28;20094;-46
2022/07/31 02:51:41;;;;;;;2.85;1.70;;;26.60;46.70;;;;;;5060265;28;20025;-43
2022/07/31 02:54:07;;;;;;;2.50;1.60;;;26.60;46.70;;;;;;5060311;28;20389;-42
2022/07/31 02:56:33;;;;;;;2.22;1.63;;;26.60;46.70;;;;;;5052284;28;20029;-43
2022/07/31 02:58:59;;;;;;;1.52;1.35;;;26.60;46.70;;;;;;5053626;28;20037;-43
2022/07/31 03:01:25;;;;;;;2.03;1.60;;;26.60;46.70;;;;;;5055305;28;20472;-51
2022/07/31 03:03:50;;;;;;;1.95;1.30;;;26.60;46.70;;;;;;5053417;28;20052;-42
2022/07/31 03:06:16;;;;;;;2.03;1.50;;;26.60;46.80;;;;;;5061509;28;20035;-43
2022/07/31 03:08:43;;;;;;;1.88;1.60;;;26.50;46.70;;;;;;5061272;28;20029;-42
2022/07/31 03:11:08;;;;;;;1.42;1.33;;;26.60;46.80;;;;;;5067728;28;20036;-40
2022/07/31 03:13:35;;;;;;;2.38;1.80;;;26.50;46.80;;;;;;5061347;28;20041;-40
2022/07/31 03:16:04;;;;;;;2.55;1.50;;;26.50;46.80;;;;;;5044524;28;20024;-42
2022/07/31 03:18:31;;;;;;;5.18;2.38;;;26.50;46.90;;;;;;5055806;28;20032;-44
2022/07/31 03:20:56;;;;;;;1.73;1.63;;;26.50;46.80;;;;;;5061447;28;20036;-44
2022/07/31 03:23:24;;;;;;;2.05;1.60;;;26.50;46.80;;;;;;5051326;28;20473;-42
2022/07/31 03:25:51;;;;;;;1.58;1.33;;;26.50;46.90;;;;;;5062813;28;20496;-43
2022/07/31 03:28:20;;;;;;;1.58;1.42;;;26.50;46.90;;;;;;5051834;28;20039;-43
2022/07/31 03:30:50;;;;;;;2.25;1.60;;;26.50;46.90;;;;;;5061285;28;20568;-42
2022/07/31 03:33:15;;;;;;;2.17;1.70;;;26.50;47.00;;;;;;5049060;28;21804;-42
2022/07/31 03:35:41;;;;;;;2.03;1.58;;;26.50;47.00;;;;;;5055126;28;20037;-44
2022/07/31 03:38:07;;;;;;;1.65;1.55;;;26.50;47.00;;;;;;5053540;28;20044;-42
2022/07/31 03:40:32;;;;;;;3.08;1.55;;;26.50;47.00;;;;;;5051304;28;20048;-42
2022/07/31 03:43:00;;;;;;;2.10;1.65;;;26.50;47.00;;;;;;5046895;28;20040;-45
2022/07/31 03:45:30;;;;;;;2.53;1.63;;;26.50;47.00;;;;;;5054153;28;20025;-50
2022/07/31 03:47:57;;;;;;;2.30;1.50;;;26.50;47.00;;;;;;5058548;28;20389;-42
2022/07/31 03:50:24;;;;;;;2.08;1.38;;;26.50;47.10;;;;;;5057968;28;20032;-45
2022/07/31 03:52:50;;;;;;;2.13;1.45;;;26.50;47.10;;;;;;5055498;28;20025;-44
2022/07/31 03:55:16;;;;;;;2.20;1.58;;;26.50;47.00;;;;;;5052797;28;20070;-42
2022/07/31 03:57:42;;;;;;;1.92;1.60;;;26.50;47.00;;;;;;5051153;28;20524;-46
2022/07/31 04:00:09;;;;;;;2.08;1.75;;;26.40;46.90;;;;;;5057746;28;20036;-42
2022/07/31 04:02:35;;;;;;;1.85;1.50;;;26.50;47.00;;;;;;5061640;28;20059;-42
2022/07/31 04:05:01;;;;;;;2.50;1.80;;;26.50;47.10;;;;;;5057766;28;20470;-42
2022/07/31 04:07:26;;;;;;;1.75;1.40;;;26.40;46.90;;;;;;5056474;28;20082;-51
2022/07/31 04:09:53;;;;;;;2.65;1.55;;;26.40;46.90;;;;;;5061638;28;20520;-43
2022/07/31 04:12:18;;;;;;;1.83;1.52;;;26.50;47.00;;;;;;5062387;28;20373;-43
2022/07/31 04:14:46;;;;;;;1.77;1.60;;;26.40;47.00;;;;;;5057347;28;20045;-51
2022/07/31 04:17:11;;;;;;;2.63;1.67;;;26.40;47.00;;;;;;5049640;28;20029;-42
2022/07/31 04:19:38;;;;;;;2.25;1.70;;;26.40;46.90;;;;;;5058564;28;20477;-43
2022/07/31 04:22:04;;;;;;;1.83;1.38;;;26.40;46.90;;;;;;5048673;28;20379;-42
2022/07/31 04:24:30;;;;;;;3.53;1.58;;;26.40;46.90;;;;;;5065994;28;20112;-50
2022/07/31 04:26:56;;;;;;;2.33;1.60;;;26.40;47.00;;;;;;5062423;28;20458;-41
2022/07/31 04:29:22;;;;;;;2.20;1.40;;;26.40;46.90;;;;;;5053163;28;20398;-40
2022/07/31 04:31:47;;;;;;;1.58;1.48;;;26.40;46.90;;;;;;5051314;28;20021;-44
2022/07/31 04:34:13;;;;;;;2.22;1.60;;;26.40;46.80;;;;;;5055989;28;20029;-41
2022/07/31 04:36:38;;;;;;;2.00;1.58;;;26.40;46.90;;;;;;5061063;28;20438;-44
2022/07/31 04:39:04;;;;;;;2.33;1.77;;;26.40;46.90;;;;;;5052149;28;20024;-40
2022/07/31 04:41:30;;;;;;;2.20;1.80;;;26.40;47.00;;;;;;5051856;28;20036;-50
2022/07/31 04:43:56;;;;;;;2.70;1.60;;;26.40;46.90;;;;;;5059188;28;20034;-41
2022/07/31 04:46:22;;;;;;;1.75;1.45;;;26.40;46.90;;;;;;5060275;28;20032;-42
2022/07/31 04:48:48;;;;;;;3.03;1.50;;;26.40;46.80;;;;;;5055454;28;20779;-45
2022/07/31 04:51:22;;;;;;;4.03;1.90;;;26.40;46.80;;;;;;5039021;28;20044;-41
2022/07/31 04:53:49;;;;;;;3.20;1.52;;;26.40;46.90;;;;;;5057115;28;20163;-42
2022/07/31 04:59:05;;;;;;;1.60;1.48;;;26.40;46.90;;;;;;5058150;28;20044;-43
2022/07/31 05:01:32;;;;;;;2.28;1.50;;;26.40;46.90;;;;;;5052672;28;20485;-45
2022/07/31 05:03:58;;;;;;;3.33;1.42;;;26.40;46.90;;;;;;5062130;28;20044;-42
2022/07/31 05:06:42;;;;;;;3.13;1.38;;;26.40;46.90;;;;;;5058964;28;20036;-42
2022/07/31 05:09:14;;;;;;;2.00;1.52;;;26.40;46.90;;;;;;5052463;28;20041;-45
2022/07/31 05:11:42;;;;;;;2.60;1.75;;;26.40;47.00;;;;;;5056561;28;20090;-45
2022/07/31 05:14:09;;;;;;;3.47;1.63;;;26.40;47.00;;;;;;5050871;28;20029;-42
2022/07/31 05:16:36;;;;;;;2.67;1.38;;;26.40;47.00;;;;;;5050233;28;20430;-41
2022/07/31 05:19:03;;;;;;;1.80;1.58;;;26.40;47.00;;;;;;5032929;28;20527;-41
2022/07/31 05:21:29;;;;;;;2.13;1.60;;;26.40;47.00;;;;;;5051432;28;20036;-48
2022/07/31 05:23:55;;;;;;;2.80;1.80;;;26.40;47.00;;;;;;5046338;28;20025;-50
2022/07/31 05:26:21;;;;;;;4.28;1.42;;;26.40;47.00;;;;;;5050302;28;20025;-46
2022/07/31 05:28:48;;;;;;;2.42;1.50;;;26.40;47.00;;;;;;5048922;28;20041;-41
2022/07/31 05:31:15;;;;;;;1.88;1.50;;;26.40;47.10;;;;;;5055412;28;20029;-41
2022/07/31 05:33:41;;;;;;;1.60;1.50;;;26.40;47.10;;;;;;5056488;28;20059;-41
2022/07/31 05:36:07;;;;;;;1.65;1.55;;;26.40;47.00;;;;;;5052134;28;20021;-44
2022/07/31 05:38:33;;;;;;;4.47;1.65;;;26.40;47.10;;;;;;5051463;28;20432;-41
2022/07/31 05:40:59;;;;;;;2.05;1.50;;;26.40;47.10;;;;;;5048017;28;20090;-41
2022/07/31 05:43:25;;;;;;;2.33;1.50;;;26.40;47.20;;;;;;5060761;28;20032;-44
2022/07/31 05:45:50;;;;;;;1.65;1.30;;;26.40;47.20;;;;;;5052292;28;20021;-41
2022/07/31 05:48:17;;;;;;;2.35;1.52;;;26.40;47.20;;;;;;5058832;28;20481;-41
2022/07/31 05:50:43;;;;;;;2.10;1.73;;;26.40;47.20;;;;;;5059554;28;20025;-41
2022/07/31 05:53:11;;;;;;;2.90;1.70;;;26.40;47.20;;;;;;5054516;28;20062;-41
2022/07/31 05:55:38;;;;;;;2.10;1.45;;;26.40;47.30;;;;;;5054132;28;20107;-44
2022/07/31 05:58:04;;;;;;;2.20;1.42;;;26.40;47.30;;;;;;5055384;28;20064;-42
2022/07/31 06:00:30;;;;;;;2.25;1.50;;;26.40;47.30;;;;;;5048260;28;20075;-50
2022/07/31 06:02:56;;;;;;;2.28;1.52;;;26.40;47.30;;;;;;5048208;28;20048;-41
2022/07/31 06:05:22;;;;;;;1.50;1.30;;;26.40;48.10;;;;;;5054556;28;20462;-41
2022/07/31 06:07:50;;;;;;;1.45;1.35;;;26.40;47.40;;;;;;5053655;28;20481;-42
2022/07/31 06:10:15;;;;;;;1.67;1.40;;;26.40;47.50;;;;;;5058082;28;20060;-42
2022/07/31 06:12:41;;;;;;;1.77;1.40;;;26.40;47.50;;;;;;5057283;28;20471;-42
2022/07/31 06:15:07;;;;;;;4.70;1.70;;;26.30;47.70;;;;;;5056786;28;20025;-42
2022/07/31 06:17:33;;;;;;;3.03;1.90;;;26.40;47.60;;;;;;5055638;28;20483;-41
2022/07/31 06:19:58;;;;;;;2.33;1.40;;;26.40;47.70;;;;;;5063941;28;20047;-41
2022/07/31 06:22:24;;;;;;;2.92;1.48;;;26.40;47.90;;;;;;5060808;28;20402;-46
2022/07/31 06:24:50;;;;;;;1.73;1.42;;;26.40;47.90;;;;;;5053044;28;20055;-42
2022/07/31 06:27:16;;;;;;;3.38;1.83;;;26.40;48.10;;;;;;5051554;28;20029;-42
2022/07/31 06:29:42;;;;;;;2.28;1.52;;;26.40;48.00;;;;;;5061694;28;20063;-41
2022/07/31 06:32:08;;;;;;;2.00;1.60;;;26.40;48.10;;;;;;5043445;28;20024;-44
2022/07/31 06:34:33;;;;;;;2.60;1.48;;;26.40;48.20;;;;;;5050687;28;20144;-42
2022/07/31 06:36:59;;;;;;;2.67;1.60;;;26.40;48.20;;;;;;5051246;28;20120;-41
2022/07/31 06:39:25;;;;;;;2.55;1.92;;;26.40;48.30;;;;;;5054284;28;20039;-42
2022/07/31 06:41:51;;;;;;;3.03;1.65;;;26.40;48.30;;;;;;5058703;28;20067;-41
2022/07/31 06:44:18;;;;;;;2.58;1.50;;;26.40;48.30;;;;;;5044164;28;20067;-41
2022/07/31 06:46:45;;;;;;;2.10;1.25;;;26.40;48.40;;;;;;5057005;28;20478;-43
2022/07/31 06:49:11;;;;;;;3.65;1.77;;;26.40;48.30;;;;;;5055282;28;20029;-41
2022/07/31 06:51:37;;;;;;;2.03;1.60;;;26.40;48.40;;;;;;5055197;28;20031;-41
2022/07/31 06:54:05;;;;;;;2.08;1.58;;;26.40;48.50;;;;;;5059834;28;20021;-45
2022/07/31 06:56:31;;;;;;;2.13;1.40;;;26.40;48.50;;;;;;5062089;28;20386;-49
2022/07/31 06:58:57;;;;;;;1.70;1.42;;;26.40;48.50;;;;;;5051998;28;20120;-42
2022/07/31 07:01:22;;;;;;;2.17;1.98;;;26.40;48.50;;;;;;5058301;28;20457;-43
2022/07/31 07:03:48;;;;;;;2.53;1.80;;;26.40;48.60;;;;;;5042842;28;20052;-42
2022/07/31 07:06:14;;;;;;;2.20;2.00;;;26.40;48.60;;;;;;5055648;28;20078;-41
2022/07/31 07:08:40;;;;;;;3.20;1.77;;;26.40;48.80;;;;;;5056647;28;20059;-42
2022/07/31 07:11:05;;;;;;;2.75;1.70;;;26.30;48.80;;;;;;5047870;28;20503;-41
2022/07/31 07:13:31;;;;;;;2.88;1.67;;;26.40;49.00;;;;;;5053672;28;20029;-51
2022/07/31 07:15:57;;;;;;;2.53;1.90;;;26.40;49.00;;;;;;5054999;28;20032;-41
2022/07/31 07:18:22;;;;;;;2.38;1.80;;;26.40;49.00;;;;;;5054012;28;20032;-41
2022/07/31 07:20:49;;;;;;;3.20;1.67;;;26.30;49.70;;;;;;5050366;28;20368;-41
2022/07/31 07:23:14;;;;;;;4.18;1.90;;;26.20;50.20;;;;;;5047105;28;20124;-42
2022/07/31 07:25:40;;;;;;;3.80;1.95;;;26.10;50.60;;;;;;5053864;28;20488;-42
2022/07/31 07:28:07;;;;;;;3.10;1.95;;;26.00;50.80;;;;;;5051856;28;20110;-41
2022/07/31 07:30:33;;;;;;;3.83;2.10;;;26.00;50.80;;;;;;5053031;28;20047;-49
2022/07/31 07:32:59;;;;;;;2.80;1.70;;;26.00;51.00;;;;;;5049966;28;20029;-41
2022/07/31 07:35:25;;;;;;;5.88;2.08;;;26.00;50.80;;;;;;5054297;28;20380;-40
2022/07/31 07:37:51;;;;;;;4.90;2.25;;;26.00;50.90;;;;;;5053281;28;20024;-43
2022/07/31 07:40:17;;;;;;;3.70;1.92;;;26.00;50.80;;;;;;5057123;28;20034;-41
2022/07/31 07:42:43;;;;;;;2.85;1.77;;;26.00;50.90;;;;;;5057756;28;20458;-44
2022/07/31 07:45:09;;;;;;;2.78;1.98;;;26.00;51.20;;;;;;5070033;28;20382;-40
2022/07/31 07:47:35;;;;;;;5.28;2.40;;;26.00;51.20;;;;;;5037074;28;20036;-41
2022/07/31 07:50:01;;;;;;;2.58;1.67;;;26.00;52.00;;;;;;5063707;28;20036;-40
2022/07/31 07:52:27;;;;;;;3.63;1.70;;;26.00;51.40;;;;;;5051264;28;20434;-40
2022/07/31 07:54:52;;;;;;;5.68;1.95;;;26.10;51.10;;;;;;5058773;28;20059;-40
2022/07/31 07:57:19;;;;;;;3.28;2.17;;;26.10;50.80;;;;;;5058196;28;20063;-40
2022/07/31 07:59:46;;;;;;;2.88;1.90;;;26.30;50.80;;;;;;5053085;28;20108;-40
2022/07/31 08:02:13;;;;;;;4.15;2.10;;;26.30;50.80;;;;;;5061581;28;20108;-41
2022/07/31 08:04:39;;;;;;;3.22;1.92;;;26.30;50.90;;;;;;5055943;28;20033;-42
2022/07/31 08:07:05;;;;;;;3.53;1.60;;;26.40;51.00;;;;;;5057377;28;20044;-40
2022/07/31 08:09:32;;;;;;;4.68;1.90;;;26.40;51.10;;;;;;5061412;28;20074;-49
2022/07/31 08:11:58;;;;;;;2.95;1.75;;;26.40;51.10;;;;;;5053200;28;20032;-41
2022/07/31 08:14:24;;;;;;;2.85;1.65;;;26.40;51.20;;;;;;5057622;28;20052;-41
2022/07/31 08:16:50;;;;;;;2.65;1.90;;;26.50;51.30;;;;;;5037983;28;20021;-43
2022/07/31 08:19:15;;;;;;;4.53;1.55;;;26.50;51.40;;;;;;5062027;28;20473;-42
2022/07/31 08:21:41;;;;;;;2.20;1.70;;;26.40;51.60;;;;;;5057801;28;20035;-41
2022/07/31 08:24:07;;;;;;;2.70;2.10;;;26.50;51.80;;;;;;5056774;28;20031;-42
2022/07/31 08:29:22;;;;;;;2.65;1.50;;;26.50;52.00;;;;;;5048513;28;20043;-43
2022/07/31 08:31:48;;;;;;;4.03;1.67;;;26.60;51.90;;;;;;5031755;28;20043;-43
2022/07/31 08:34:13;;;;;;;4.13;1.58;;;26.50;51.70;;;;;;5056983;28;20111;-41
2022/07/31 08:36:39;;;;;;;2.47;1.45;;;26.60;51.90;;;;;;5052350;28;20090;-42
2022/07/31 08:39:05;;;;;;;1.98;1.67;;;26.60;51.90;;;;;;5055221;28;20064;-43
2022/07/31 08:41:37;;;;;;;4.40;1.80;;;26.60;51.80;;;;;;5052794;28;20032;-41
2022/07/31 08:44:04;;;;;;;1.95;1.75;;;26.60;52.30;;;;;;5053696;28;20035;-42
2022/07/31 08:46:36;;;;;;;5.00;1.83;;;26.60;52.20;;;;;;5062803;28;20107;-42
2022/07/31 08:49:03;;;;;;;2.80;1.77;;;26.60;52.20;;;;;;5052096;28;20044;-41
2022/07/31 08:51:34;;;;;;;2.10;1.48;;;26.60;52.10;;;;;;5055894;28;20020;-41
2022/07/31 08:54:04;;;;;;;3.75;1.75;;;26.60;52.00;;;;;;5057463;28;20048;-41
2022/07/31 08:56:32;;;;;;;2.10;1.40;;;26.60;52.10;;;;;;5053696;28;20033;-41
2022/07/31 08:58:58;;;;;;;1.85;1.65;;;26.60;51.80;;;;;;5052662;28;20115;-43
2022/07/31 09:01:24;;;;;;;2.38;1.50;;;26.60;52.70;;;;;;5052577;28;20048;-42
2022/07/31 09:03:50;;;;;;;4.07;1.70;;;26.50;52.10;;;;;;5059443;28;20021;-46
2022/07/31 09:06:15;;;;;;;3.45;1.85;;;26.50;51.80;;;;;;5030042;28;20036;-42
2022/07/31 09:08:41;;;;;;;2.38;1.58;;;26.60;52.00;;;;;;5060795;28;20690;-42
2022/07/31 09:11:09;;;;;;;2.47;1.92;;;26.60;52.10;;;;;;5060293;28;20075;-42
2022/07/31 09:13:35;;;;;;;2.53;1.73;;;26.50;51.90;;;;;;5052063;28;20033;-50
2022/07/31 09:16:02;;;;;;;2.33;1.83;;;26.60;52.00;;;;;;5058575;28;20028;-42
2022/07/31 09:18:27;;;;;;;5.28;1.50;;;26.60;52.00;;;;;;5057639;28;20056;-44
2022/07/31 09:21:03;;;;;;;4.43;1.67;;;26.60;52.10;;;;;;5058509;28;20028;-44
2022/07/31 09:23:29;;;;;;;1.73;1.60;;;26.60;52.10;;;;;;5050973;28;20029;-42
2022/07/31 09:26:00;;;;;;;4.88;1.65;;;26.60;52.20;;;;;;5052169;28;20040;-42
2022/07/31 09:28:44;;;;;;;1.95;1.55;;;26.60;52.10;;;;;;5058107;28;20501;-42
2022/07/31 09:31:12;;;;;;;3.72;1.60;;;26.60;52.20;;;;;;5061171;28;20025;-42
2022/07/31 09:33:42;;;;;;;2.38;1.60;;;26.60;52.20;;;;;;5058009;28;20033;-41
2022/07/31 09:36:08;;;;;;;3.20;1.55;;;26.60;52.20;;;;;;5057107;28;20031;-43
2022/07/31 09:38:38;;;;;;;1.95;1.50;;;26.60;52.10;;;;;;5066772;28;20037;-49
2022/07/31 09:41:11;;;;;;;3.13;1.40;;;26.60;52.20;;;;;;5054606;28;20033;-44
2022/07/31 09:43:37;;;;;;;3.00;1.50;;;26.60;52.40;;;;;;5055580;28;20031;-49
2022/07/31 09:46:05;;;;;;;3.50;1.63;;;26.60;52.40;;;;;;5057227;28;20028;-42
2022/07/31 09:48:31;;;;;;;2.40;1.55;;;26.60;52.40;;;;;;5054155;28;20382;-42
2022/07/31 09:50:58;;;;;;;1.42;1.23;;;26.60;52.40;;;;;;5051397;28;20020;-42
2022/07/31 09:53:24;;;;;;;2.72;1.40;;;26.70;52.40;;;;;;5053195;28;20076;-42
2022/07/31 09:55:56;;;;;;;1.60;1.40;;;26.70;52.50;;;;;;5053300;28;20407;-43
2022/07/31 09:58:23;;;;;;;3.72;1.50;;;26.70;52.50;;;;;;5058566;28;20028;-43
2022/07/31 10:00:53;;;;;;;2.50;1.75;;;26.70;52.40;;;;;;5051659;28;20041;-41
2022/07/31 10:03:21;;;;;;;3.92;1.83;;;26.70;52.30;;;;;;5056111;28;20024;-45
2022/07/31 10:05:47;;;;;;;2.90;1.40;;;26.70;52.90;;;;;;5053708;28;20466;-41
2022/07/31 10:08:16;;;;;;;4.53;1.73;;;26.70;52.10;;;;;;5059293;28;20437;-42
2022/07/31 10:10:45;;;;;;;2.25;1.67;;;26.70;52.20;;;;;;5050326;28;20048;-45
2022/07/31 10:13:16;;;;;;;2.45;1.55;;;26.80;51.00;;;;;;5051979;28;20128;-44
2022/07/31 10:15:46;;;;;;;1.25;1.15;;;26.80;50.60;;;;;;5059983;28;20417;-42
2022/07/31 10:18:14;;;;;;;2.83;1.33;;;26.80;50.60;;;;;;5051763;28;20091;-45
2022/07/31 10:20:48;;;;;;;2.60;1.70;;;26.80;50.20;;;;;;5049797;28;20028;-42
2022/07/31 10:23:16;;;;;;;4.20;1.55;;;26.80;49.90;;;;;;5056420;28;20036;-42
2022/07/31 10:25:50;;;;;;;2.58;1.65;;;26.80;50.80;;;;;;5058327;28;20025;-48
2022/07/31 10:28:17;;;;;;;1.63;1.13;;;26.80;50.20;;;;;;5052166;28;20091;-43
2022/07/31 10:30:45;;;;;;;1.77;1.20;;;26.80;50.30;;;;;;5055179;28;20085;-42
2022/07/31 10:33:10;;;;;;;2.65;1.30;;;26.80;50.40;;;;;;5052740;28;20036;-44
2022/07/31 10:36:01;;;;;;;4.00;1.35;;;26.80;51.00;;;;;;5035986;28;20070;-49
2022/07/31 10:38:32;;;;;;;1.70;1.42;;;26.80;51.40;;;;;;5048984;28;20029;-44
2022/07/31 10:41:24;;;;;;;;;;;26.80;50.90;;;;;;5058011;28;20033;-42
2022/07/31 10:44:02;;;;;;;5.60;1.50;;;26.80;50.90;;;;;;5059717;28;19999;-42
2022/07/31 10:46:29;;;;;;;3.78;2.13;;;26.80;50.80;;;;;;5059541;28;20029;-42
2022/07/31 10:48:55;;;;;;;4.70;1.70;;;26.80;51.00;;;;;;5056736;28;20679;-41
2022/07/31 10:51:22;;;;;;;2.65;1.40;;;26.80;50.70;;;;;;5058185;28;20043;-41
2022/07/31 10:54:02;;;;;;;2.13;1.30;;;26.80;51.00;;;;;;5055541;28;20029;-43
2022/07/31 10:56:38;;;;;;;1.40;1.05;;;26.80;50.80;;;;;;5050705;28;20060;-42
2022/07/31 10:59:04;;;;;;;1.48;1.38;;;26.80;50.60;;;;;;5053551;28;20119;-42
2022/07/31 11:01:30;;;;;;;1.70;1.20;;;26.80;50.70;;;;;;5060377;28;20032;-41
2022/07/31 11:04:03;;;;;;;2.10;1.10;;;26.80;50.60;;;;;;5055415;28;20087;-42
2022/07/31 11:06:43;;;;;;;1.42;1.33;;;26.80;50.50;;;;;;5050726;28;20043;-48
2022/07/31 11:09:20;;;;;;;1.45;1.15;;;26.80;50.30;;;;;;5047440;28;20525;-42
2022/07/31 11:11:45;;;;;;;2.42;1.50;;;26.80;50.20;;;;;;5053010;28;20025;-42
2022/07/31 11:14:11;;;;;;;3.45;1.42;;;26.80;50.40;;;;;;5060143;28;20367;-42
2022/07/31 11:16:57;;;;;;;1.38;1.20;;;26.70;50.60;;;;;;5054550;28;20025;-47
2022/07/31 11:19:22;;;;;;;11.68;1.73;;;26.80;50.50;;;;;;5054770;28;20036;-41
2022/07/31 11:21:48;;;;;;;1.83;1.27;;;26.80;50.50;;;;;;5062730;28;20377;-42
2022/07/31 11:24:19;;;;;;;1.90;1.23;;;26.80;50.60;;;;;;5057641;28;20080;-43
2022/07/31 11:26:51;;;;;;;3.33;1.45;;;26.80;50.60;;;;;;5061835;28;20116;-42
2022/07/31 11:29:33;;;;;;;2.70;1.30;;;26.70;50.40;;;;;;5044198;28;20037;-42
2022/07/31 11:32:11;;;;;;;5.40;2.63;;;26.80;50.10;;;;;;5059687;28;20070;-47
2022/07/31 11:34:50;;;;;;;2.60;2.00;;;26.70;50.40;;;;;;5054200;28;20037;-56
2022/07/31 11:37:22;;;;;;;5.68;1.95;;;26.80;50.30;;;;;;5055270;28;20063;-46
2022/07/31 11:39:49;;;;;;;3.10;1.38;;;26.80;50.30;;;;;;5055684;28;20417;-48
2022/07/31 11:42:15;;;;;;;3.05;1.23;;;26.80;50.10;;;;;;5055743;28;20029;-47
2022/07/31 11:44:41;;;;;;;4.15;1.33;;;26.80;50.00;;;;;;5049561;28;20030;-47
2022/07/31 11:47:07;;;;;;;3.50;1.50;;;26.80;49.90;;;;;;5046004;28;20036;-46
2022/07/31 11:49:35;;;;;;;2.22;1.30;;;26.80;49.80;;;;;;5056222;28;20029;-44
2022/07/31 11:52:06;;;;;;;2.63;1.63;;;26.80;49.80;;;;;;5062891;28;20033;-45
2022/07/31 11:54:33;;;;;;;2.28;1.10;;;26.80;49.80;;;;;;5049658;28;20029;-44
2022/07/31 11:56:59;;;;;;;2.58;1.60;;;26.80;49.60;;;;;;5042828;28;20034;-47
2022/07/31 11:59:43;;;;;;;1.58;1.17;;;26.80;49.60;;;;;;5054720;28;20082;-46
2022/07/31 12:02:11;;;;;;;1.30;1.17;;;26.80;49.50;;;;;;5060350;28;20040;-44
2022/07/31 12:04:37;;;;;;;1.50;1.13;;;26.80;49.40;;;;;;5057403;28;20770;-54
2022/07/31 12:07:07;;;;;;;1.48;1.10;;;26.80;49.40;;;;;;5058477;28;20037;-45
2022/07/31 12:09:34;;;;;;;1.90;1.30;;;26.80;49.20;;;;;;5060474;28;20076;-48
2022/07/31 12:12:02;;;;;;;1.63;1.25;;;26.90;49.30;;;;;;5051449;28;20029;-46
2022/07/31 12:14:28;;;;;;;5.55;1.52;;;26.90;49.40;;;;;;5060240;28;20036;-46
2022/07/31 12:16:54;;;;;;;2.65;1.25;;;26.90;49.30;;;;;;5057140;28;20091;-46
2022/07/31 12:19:30;;;;;;;2.40;0.95;;;26.90;49.30;;;;;;5058864;28;20462;-46
2022/07/31 12:21:56;;;;;;;2.83;1.10;;;26.90;49.60;;;;;;5056416;28;20124;-49
2022/07/31 12:24:23;;;;;;;2.67;1.10;;;26.90;49.70;;;;;;5061351;28;20540;-46
2022/07/31 12:26:51;;;;;;;1.60;1.05;;;26.90;49.70;;;;;;5060065;28;20029;-46
2022/07/31 12:29:18;;;;;;;2.40;1.27;;;26.90;49.60;;;;;;5054623;28;20152;-48
2022/07/31 12:31:49;;;;;;;2.63;1.10;;;26.90;50.30;;;;;;5053861;28;20082;-46
2022/07/31 12:34:27;;;;;;;1.70;1.20;;;26.90;49.60;;;;;;5052916;28;20032;-47
2022/07/31 12:37:05;;;;;;;5.38;1.00;;;26.90;49.40;;;;;;5054601;28;20493;-45
2022/07/31 12:39:35;;;;;;;3.75;1.25;;;26.90;49.30;;;;;;5060949;28;20115;-45
2022/07/31 12:42:00;;;;;;;2.47;1.20;;;26.90;49.30;;;;;;5060046;28;20029;-44
2022/07/31 12:44:27;;;;;;;1.50;0.98;;;26.90;49.20;;;;;;5057650;28;20075;-51
2022/07/31 12:46:53;;;;;;;2.55;1.20;;;26.90;49.30;;;;;;5057100;28;20286;-48
2022/07/31 12:49:19;;;;;;;1.33;0.95;;;26.90;49.20;;;;;;5053537;28;20059;-47
2022/07/31 12:51:44;;;;;;;1.63;1.33;;;26.90;49.20;;;;;;5058689;28;20025;-45
2022/07/31 12:54:12;;;;;;;1.40;1.20;;;26.90;49.20;;;;;;5060282;28;20120;-47
2022/07/31 12:56:39;;;;;;;2.20;1.83;;;27.00;49.30;;;;;;5059568;28;20025;-55